• Join FlightAware (Why Join?)
  • Login
  • US Flag 
10:41AM EDT


 

Airport Tracker/Info


-or-


 

Live Flight TrackerFlight Track Log ✈ DAL6034 ✈ 18-Apr-2013 ✈ KMHT - KLGA

Flight Track Log - Related Links

Times and Time Zones

All times are in EDT time to prevent confusion due to time zone crossing. See the DAL6034 flight status page for this flight to view local times or setup timezone preferences in your user account.

Time Position Orientation Groundspeed Altitude Reporting Facility
EDT Latitude Longitude Course Direction KTS MPH feet Rate Location/Type
05:12PM 42.9167 -71.4167 262° West 156 180 1,000  Level KA90
05:13PM 42.9000 -71.4833 251° West 217 250 4,800 2,340 Climbing KA90
05:14PM 42.9431 -71.5467 313° West 242 278 7,300 2,340 Climbing Boston Center
05:15PM 42.6564 -71.7610 236° Southwest  Level Estimated
05:15PM 43.0017 -71.6025 325° Northwest 242 278 9,900  Level Boston Center
05:16PM 42.5872 -71.8418 231° Southwest  Level Estimated
05:16PM 43.0481 -71.6558 320° Northwest 240 276 11,800  Level Boston Center
05:17PM 42.5741 -71.9645 262° West  Level FlightAware Approximate
05:17PM 43.0256 -71.7331 248° West 187 215 13,900  Level Boston Center
05:18PM 42.9800 -71.7844 220° Southwest 215 247 15,300 1,080 Climbing Boston Center
05:19PM 42.9178 -71.8589 221° Southwest 258 297 16,100 360 Climbing Boston Center
05:20PM 42.8597 -71.9275 221° Southwest 296 341 16,100  Level Boston Center
05:21PM 42.7997 -72.0242 230° Southwest 310 357 16,100  Level Boston Center
05:22PM 42.7500 -72.1064 231° Southwest 316 364 16,100  Level Boston Center
05:23PM 42.6858 -72.2114 230° Southwest 321 369 16,100 -60 Level Boston Center
05:24PM 42.6317 -72.3019 231° Southwest 321 369 16,000 -60 Descending Boston Center
05:25PM 42.5733 -72.3950 230° Southwest 326 375 16,000  Level Boston Center
05:26PM 42.5172 -72.4850 230° Southwest 326 375 16,000  Level Boston Center
05:27PM 42.4608 -72.5753 230° Southwest 326 375 16,000  Level Boston Center
05:28PM 42.4106 -72.6539 229° Southwest 326 375 16,000  Level Boston Center
05:29PM 42.3561 -72.7436 231° Southwest 321 369 16,100  Climbing Boston Center
05:30PM 42.2956 -72.8358 228° Southwest 303 349 16,100  Level Boston Center
05:31PM 42.2514 -72.9086 231° Southwest 292 336 16,100 -60 Level Boston Center
05:32PM 42.1928 -72.9978 228° Southwest 292 336 16,000 -60 Descending Boston Center
05:33PM 42.1506 -73.0731 233° Southwest 292 336 16,000 -1,020 Level Boston Center
05:34PM 42.0917 -73.1592 227° Southwest 287 330 14,000 -1,860 Descending Boston Center
05:35PM 42.0497 -73.2314 232° Southwest 279 321 12,400 -1,020 Descending Boston Center
05:36PM 41.9969 -73.3117 229° Southwest 279 321 12,000 -180 Descending Boston Center
05:37PM 41.9483 -73.3864 229° Southwest 279 321 12,100  Climbing Boston Center
05:38PM 41.9083 -73.4500 230° Southwest 263 303 12,100  Level Boston Center
05:39PM 41.8533 -73.5242 225° Southwest 263 303 12,100 -180 Level Boston Center
05:40PM 41.7925 -73.5567 202° Southwest 263 303 11,800 -660 Descending Boston Center
05:41PM 41.7192 -73.5972 202° Southwest 268 308 10,800 -960 Descending Boston Center
05:42PM 41.6522 -73.6319 201° Southwest 275 316 9,900 -840 Descending Boston Center
05:43PM 41.5808 -73.6722 203° Southwest 267 307 9,200 -420 Descending Boston Center
05:45PM 41.5000 -73.7167 202° Southwest 255 293 9,000 -240 Descending New York TRACON
05:46PM 41.4167 -73.7167 180° South 270 311 8,700 -540 Descending New York TRACON
05:47PM 41.3500 -73.7000 169° South 256 295 8,000 -360 Descending New York TRACON
05:48PM 41.2833 -73.6833 169° South 245 282 8,000 -120 Level New York TRACON
05:49PM 41.2167 -73.6667 169° South 262 302 7,800 -720 Descending New York TRACON
05:50PM 41.1500 -73.6500 169° South 236 272 6,600 -1,080 Descending New York TRACON
05:51PM 41.1000 -73.6333 166° South 224 258 5,800 -1,080 Descending New York TRACON
05:52PM 41.0333 -73.6667 201° Southwest 227 261 4,500 -1,140 Descending New York TRACON
05:53PM 40.9833 -73.7167 217° Southwest 233 268 3,500 -780 Descending New York TRACON
05:54PM 40.9333 -73.7500 207° Southwest 204 235 3,000 -540 Descending New York TRACON